sensor_id;sensor_type;location;lat;lon;timestamp;pressure;altitude;pressure_sealevel;temperature;humidity
14295;BME280;7231;59.370;18.016;2023-06-24T00:00:56;101459.72;;;17.44;77.03
14295;BME280;7231;59.370;18.016;2023-06-24T00:03:26;101453.50;;;17.40;77.19
14295;BME280;7231;59.370;18.016;2023-06-24T00:05:54;101468.56;;;17.44;77.31
14295;BME280;7231;59.370;18.016;2023-06-24T00:08:24;101469.44;;;17.43;77.43
14295;BME280;7231;59.370;18.016;2023-06-24T00:11:01;101479.09;;;17.38;77.43
14295;BME280;7231;59.370;18.016;2023-06-24T00:13:29;101484.34;;;17.32;77.56
14295;BME280;7231;59.370;18.016;2023-06-24T00:15:57;101478.97;;;17.26;77.82
14295;BME280;7231;59.370;18.016;2023-06-24T00:18:26;101486.88;;;17.22;78.23
14295;BME280;7231;59.370;18.016;2023-06-24T00:20:56;101495.66;;;17.17;78.24
14295;BME280;7231;59.370;18.016;2023-06-24T00:23:24;101492.91;;;17.08;78.24
14295;BME280;7231;59.370;18.016;2023-06-24T00:25:52;101503.38;;;16.99;78.73
14295;BME280;7231;59.370;18.016;2023-06-24T00:28:21;101508.63;;;16.93;79.04
14295;BME280;7231;59.370;18.016;2023-06-24T00:30:49;101499.72;;;16.88;79.29
14295;BME280;7231;59.370;18.016;2023-06-24T00:33:17;101484.53;;;16.75;79.40
14295;BME280;7231;59.370;18.016;2023-06-24T00:35:49;101497.88;;;16.81;79.46
14295;BME280;7231;59.370;18.016;2023-06-24T00:38:17;101504.03;;;16.80;79.54
14295;BME280;7231;59.370;18.016;2023-06-24T00:40:45;101504.84;;;16.76;79.21
14295;BME280;7231;59.370;18.016;2023-06-24T00:43:14;101505.72;;;16.75;79.15
14295;BME280;7231;59.370;18.016;2023-06-24T00:45:42;101507.47;;;16.73;79.05
14295;BME280;7231;59.370;18.016;2023-06-24T00:48:14;101510.06;;;16.70;78.83
14295;BME280;7231;59.370;18.016;2023-06-24T00:50:42;101520.63;;;16.67;78.61
14295;BME280;7231;59.370;18.016;2023-06-24T00:53:13;101508.13;;;16.60;78.38
14295;BME280;7231;59.370;18.016;2023-06-24T00:55:41;101524.03;;;16.61;78.20
14295;BME280;7231;59.370;18.016;2023-06-24T00:58:09;101524.00;;;16.58;77.89
14295;BME280;7231;59.370;18.016;2023-06-24T01:00:37;101520.38;;;16.53;77.84
14295;BME280;7231;59.370;18.016;2023-06-24T01:03:06;101519.50;;;16.52;77.65
14295;BME280;7231;59.370;18.016;2023-06-24T01:05:34;101525.63;;;16.50;77.55
14295;BME280;7231;59.370;18.016;2023-06-24T01:08:03;101528.22;;;16.45;77.38
14295;BME280;7231;59.370;18.016;2023-06-24T01:10:32;101515.72;;;16.35;76.93
14295;BME280;7231;59.370;18.016;2023-06-24T01:13:01;101532.47;;;16.36;76.81
14295;BME280;7231;59.370;18.016;2023-06-24T01:15:29;101537.84;;;16.40;76.43
14295;BME280;7231;59.370;18.016;2023-06-24T01:18:02;101545.78;;;16.40;76.25
14295;BME280;7231;59.370;18.016;2023-06-24T01:20:41;101544.00;;;16.39;76.12
14295;BME280;7231;59.370;18.016;2023-06-24T01:26:31;101551.81;;;16.32;75.66
14295;BME280;7231;59.370;18.016;2023-06-24T01:29:31;101552.69;;;16.31;75.55
14295;BME280;7231;59.370;18.016;2023-06-24T01:32:06;101546.47;;;16.29;75.16
14295;BME280;7231;59.370;18.016;2023-06-24T01:34:43;101549.09;;;16.27;74.94
14295;BME280;7231;59.370;18.016;2023-06-24T01:37:17;101547.31;;;16.26;74.50
14295;BME280;7231;59.370;18.016;2023-06-24T01:39:49;101546.41;;;16.24;74.06
14295;BME280;7231;59.370;18.016;2023-06-24T01:42:19;101548.19;;;16.25;73.80
14295;BME280;7231;59.370;18.016;2023-06-24T01:44:49;101552.63;;;16.26;73.74
14295;BME280;7231;59.370;18.016;2023-06-24T01:47:21;101554.38;;;16.26;73.52
14295;BME280;7231;59.370;18.016;2023-06-24T01:49:53;101556.13;;;16.25;73.16
14295;BME280;7231;59.370;18.016;2023-06-24T01:52:22;101562.31;;;16.26;72.98
14295;BME280;7231;59.370;18.016;2023-06-24T01:54:51;101562.28;;;16.24;72.83
14295;BME280;7231;59.370;18.016;2023-06-24T01:57:20;101563.16;;;16.23;72.82
14295;BME280;7231;59.370;18.016;2023-06-24T01:59:52;101559.59;;;16.21;72.90
14295;BME280;7231;59.370;18.016;2023-06-24T02:02:24;101562.22;;;16.19;72.75
14295;BME280;7231;59.370;18.016;2023-06-24T02:04:54;101569.22;;;16.16;72.65
14295;BME280;7231;59.370;18.016;2023-06-24T02:07:23;101568.28;;;16.14;72.47
14295;BME280;7231;59.370;18.016;2023-06-24T02:09:54;101568.25;;;16.11;72.36
14295;BME280;7231;59.370;18.016;2023-06-24T02:12:23;101573.59;;;16.15;72.35
14295;BME280;7231;59.370;18.016;2023-06-24T02:14:52;101560.19;;;16.05;72.33
14295;BME280;7231;59.370;18.016;2023-06-24T02:17:24;101575.31;;;16.12;72.45
14295;BME280;7231;59.370;18.016;2023-06-24T02:19:54;101576.16;;;16.09;72.42
14295;BME280;7231;59.370;18.016;2023-06-24T02:22:23;101573.47;;;16.08;72.39
14295;BME280;7231;59.370;18.016;2023-06-24T02:24:52;101581.44;;;16.09;72.46
14295;BME280;7231;59.370;18.016;2023-06-24T02:27:21;101583.22;;;16.10;72.54
14295;BME280;7231;59.370;18.016;2023-06-24T02:29:49;101588.53;;;16.12;72.43
14295;BME280;7231;59.370;18.016;2023-06-24T02:32:18;101593.84;;;16.12;72.47
14295;BME280;7231;59.370;18.016;2023-06-24T02:34:47;101593.84;;;16.12;72.02
14295;BME280;7231;59.370;18.016;2023-06-24T02:37:16;101593.84;;;16.12;72.02
14295;BME280;7231;59.370;18.016;2023-06-24T02:39:44;101576.13;;;16.08;71.81
14295;BME280;7231;59.370;18.016;2023-06-24T02:42:12;101585.91;;;16.12;71.39
14295;BME280;7231;59.370;18.016;2023-06-24T02:44:40;101593.03;;;16.16;71.34
14295;BME280;7231;59.370;18.016;2023-06-24T02:47:11;101591.28;;;16.16;71.26
14295;BME280;7231;59.370;18.016;2023-06-24T02:49:42;101596.56;;;16.16;71.38
14295;BME280;7231;59.370;18.016;2023-06-24T02:52:15;101591.25;;;16.15;70.94
14295;BME280;7231;59.370;18.016;2023-06-24T02:54:44;101592.09;;;16.14;70.76
14295;BME280;7231;59.370;18.016;2023-06-24T02:57:12;101593.03;;;16.16;70.43
14295;BME280;7231;59.370;18.016;2023-06-24T02:59:42;101604.56;;;16.21;70.14
14295;BME280;7231;59.370;18.016;2023-06-24T03:02:11;101595.81;;;16.23;69.83
14295;BME280;7231;59.370;18.016;2023-06-24T03:04:39;101598.53;;;16.28;69.72
14295;BME280;7231;59.370;18.016;2023-06-24T03:07:08;101603.88;;;16.31;69.82
14295;BME280;7231;59.370;18.016;2023-06-24T03:09:39;101613.56;;;16.31;69.58
14295;BME280;7231;59.370;18.016;2023-06-24T03:12:08;101613.56;;;16.31;69.59
14295;BME280;7231;59.370;18.016;2023-06-24T03:14:36;101618.84;;;16.31;69.51
14295;BME280;7231;59.370;18.016;2023-06-24T03:17:05;101606.44;;;16.27;69.26
14295;BME280;7231;59.370;18.016;2023-06-24T03:19:33;101612.69;;;16.30;69.21
14295;BME280;7231;59.370;18.016;2023-06-24T03:22:01;101611.81;;;16.31;69.07
14295;BME280;7231;59.370;18.016;2023-06-24T03:24:29;101625.06;;;16.33;68.85
14295;BME280;7231;59.370;18.016;2023-06-24T03:26:58;101606.47;;;16.28;68.84
14295;BME280;7231;59.370;18.016;2023-06-24T03:29:26;101617.09;;;16.31;68.34
14295;BME280;7231;59.370;18.016;2023-06-24T03:31:55;101617.97;;;16.30;67.93
14295;BME280;7231;59.370;18.016;2023-06-24T03:34:23;101625.91;;;16.30;67.37
14295;BME280;7231;59.370;18.016;2023-06-24T03:36:52;101625.91;;;16.30;66.80
14295;BME280;7231;59.370;18.016;2023-06-24T03:39:21;101618.78;;;16.26;66.04
14295;BME280;7231;59.370;18.016;2023-06-24T03:41:50;101624.19;;;16.32;64.99
14295;BME280;7231;59.370;18.016;2023-06-24T03:44:19;101620.72;;;16.36;63.99
14295;BME280;7231;59.370;18.016;2023-06-24T03:46:47;101611.88;;;16.36;62.74
14295;BME280;7231;59.370;18.016;2023-06-24T03:49:15;101620.06;;;16.49;61.83
14295;BME280;7231;59.370;18.016;2023-06-24T03:51:44;101631.63;;;16.56;61.03
14295;BME280;7231;59.370;18.016;2023-06-24T03:54:12;101627.31;;;16.61;60.31
14295;BME280;7231;59.370;18.016;2023-06-24T03:56:40;101635.28;;;16.63;59.28
14295;BME280;7231;59.370;18.016;2023-06-24T03:59:08;101629.97;;;16.63;58.64
14295;BME280;7231;59.370;18.016;2023-06-24T04:01:38;101629.13;;;16.64;58.07
14295;BME280;7231;59.370;18.016;2023-06-24T04:04:06;101629.13;;;16.64;57.71
14295;BME280;7231;59.370;18.016;2023-06-24T04:06:33;101630.94;;;16.65;57.40
14295;BME280;7231;59.370;18.016;2023-06-24T04:09:02;101637.03;;;16.62;56.95
14295;BME280;7231;59.370;18.016;2023-06-24T04:11:30;101641.44;;;16.62;56.49
14295;BME280;7231;59.370;18.016;2023-06-24T04:13:58;101652.94;;;16.64;56.33
14295;BME280;7231;59.370;18.016;2023-06-24T04:16:26;101646.75;;;16.63;56.09
14295;BME280;7231;59.370;18.016;2023-06-24T04:18:55;101642.34;;;16.64;55.78
14295;BME280;7231;59.370;18.016;2023-06-24T04:21:23;101643.16;;;16.60;55.94
14295;BME280;7231;59.370;18.016;2023-06-24T04:23:52;101639.59;;;16.58;55.63
14295;BME280;7231;59.370;18.016;2023-06-24T04:26:20;101636.94;;;16.56;55.33
14295;BME280;7231;59.370;18.016;2023-06-24T04:28:48;101646.66;;;16.57;55.14
14295;BME280;7231;59.370;18.016;2023-06-24T04:31:16;101643.13;;;16.58;54.60
14295;BME280;7231;59.370;18.016;2023-06-24T04:33:44;101642.25;;;16.58;54.37
14295;BME280;7231;59.370;18.016;2023-06-24T04:36:13;101643.09;;;16.55;54.21
14295;BME280;7231;59.370;18.016;2023-06-24T04:38:43;101649.31;;;16.59;54.03
14295;BME280;7231;59.370;18.016;2023-06-24T04:41:11;101649.31;;;16.59;53.30
14295;BME280;7231;59.370;18.016;2023-06-24T04:43:39;101648.44;;;16.58;52.85
14295;BME280;7231;59.370;18.016;2023-06-24T04:46:07;101622.78;;;16.54;52.61
14295;BME280;7231;59.370;18.016;2023-06-24T04:48:36;101604.97;;;16.44;52.50
14295;BME280;7231;59.370;18.016;2023-06-24T04:51:04;101643.31;;;16.66;52.16
14295;BME280;7231;59.370;18.016;2023-06-24T04:53:33;101645.13;;;16.70;51.94
14295;BME280;7231;59.370;18.016;2023-06-24T04:56:01;101640.66;;;16.66;51.73
14295;BME280;7231;59.370;18.016;2023-06-24T04:58:29;101655.72;;;16.70;51.18
14295;BME280;7231;59.370;18.016;2023-06-24T05:00:57;101648.66;;;16.69;50.95
14295;BME280;7231;59.370;18.016;2023-06-24T05:03:25;101648.69;;;16.72;50.76
14295;BME280;7231;59.370;18.016;2023-06-24T05:05:53;101652.31;;;16.77;50.56
14295;BME280;7231;59.370;18.016;2023-06-24T05:08:22;101650.63;;;16.82;50.40
14295;BME280;7231;59.370;18.016;2023-06-24T05:10:51;101640.97;;;16.85;50.20
14295;BME280;7231;59.370;18.016;2023-06-24T05:13:19;101648.03;;;16.86;50.09
14295;BME280;7231;59.370;18.016;2023-06-24T05:15:47;101658.69;;;16.90;49.84
14295;BME280;7231;59.370;18.016;2023-06-24T05:18:15;101659.72;;;16.99;49.88
14295;BME280;7231;59.370;18.016;2023-06-24T05:20:43;101658.88;;;17.03;49.90
14295;BME280;7231;59.370;18.016;2023-06-24T05:23:11;101655.38;;;17.04;50.07
14295;BME280;7231;59.370;18.016;2023-06-24T05:25:39;101658.03;;;17.04;50.11
14295;BME280;7231;59.370;18.016;2023-06-24T05:28:08;101653.59;;;17.03;49.89
14295;BME280;7231;59.370;18.016;2023-06-24T05:30:36;101642.13;;;17.04;49.68
14295;BME280;7231;59.370;18.016;2023-06-24T05:33:04;101640.38;;;17.06;49.80
14295;BME280;7231;59.370;18.016;2023-06-24T05:35:35;101647.50;;;17.10;49.95
14295;BME280;7231;59.370;18.016;2023-06-24T05:38:06;101644.03;;;17.14;49.49
14295;BME280;7231;59.370;18.016;2023-06-24T05:40:34;101591.63;;;16.94;49.36
14295;BME280;7231;59.370;18.016;2023-06-24T05:43:02;101638.91;;;17.27;49.08
14295;BME280;7231;59.370;18.016;2023-06-24T05:45:32;101636.34;;;17.33;48.93
14295;BME280;7231;59.370;18.016;2023-06-24T05:48:01;101631.94;;;17.35;48.97
14295;BME280;7231;59.370;18.016;2023-06-24T05:50:30;101617.84;;;17.37;49.15
14295;BME280;7231;59.370;18.016;2023-06-24T05:52:58;101624.09;;;17.42;49.10
14295;BME280;7231;59.370;18.016;2023-06-24T05:55:26;101632.09;;;17.47;48.80
14295;BME280;7231;59.370;18.016;2023-06-24T05:57:54;101614.34;;;17.41;48.50
14295;BME280;7231;59.370;18.016;2023-06-24T06:00:22;101623.34;;;17.54;48.40
14295;BME280;7231;59.370;18.016;2023-06-24T06:02:51;101623.41;;;17.60;48.35
14295;BME280;7231;59.370;18.016;2023-06-24T06:05:19;101623.53;;;17.66;48.29
14295;BME280;7231;59.370;18.016;2023-06-24T06:07:47;101632.44;;;17.73;47.87
14295;BME280;7231;59.370;18.016;2023-06-24T06:10:15;101619.19;;;17.74;47.83
14295;BME280;7231;59.370;18.016;2023-06-24T06:12:44;101636.13;;;17.86;47.97
14295;BME280;7231;59.370;18.016;2023-06-24T06:15:12;101630.88;;;17.92;47.63
14295;BME280;7231;59.370;18.016;2023-06-24T06:17:40;101634.44;;;17.94;47.29
14295;BME280;7231;59.370;18.016;2023-06-24T06:20:11;101634.53;;;18.01;47.05
14295;BME280;7231;59.370;18.016;2023-06-24T06:22:39;101630.19;;;18.11;47.10
14295;BME280;7231;59.370;18.016;2023-06-24T06:25:07;101629.38;;;18.18;47.21
14295;BME280;7231;59.370;18.016;2023-06-24T06:27:35;101624.09;;;18.26;46.92
14295;BME280;7231;59.370;18.016;2023-06-24T06:30:04;101602.00;;;18.27;46.47
14295;BME280;7231;59.370;18.016;2023-06-24T06:32:32;101617.97;;;18.34;46.01
14295;BME280;7231;59.370;18.016;2023-06-24T06:35:00;101618.88;;;18.36;45.56
14295;BME280;7231;59.370;18.016;2023-06-24T06:37:30;101611.81;;;18.38;45.36
14295;BME280;7231;59.370;18.016;2023-06-24T06:39:58;101612.69;;;18.36;44.50
14295;BME280;7231;59.370;18.016;2023-06-24T06:42:26;101609.13;;;18.34;44.53
14295;BME280;7231;59.370;18.016;2023-06-24T06:44:54;101613.59;;;18.39;44.56
14295;BME280;7231;59.370;18.016;2023-06-24T06:47:22;101622.47;;;18.43;44.01
14295;BME280;7231;59.370;18.016;2023-06-24T06:49:50;101610.09;;;18.43;43.97
14295;BME280;7231;59.370;18.016;2023-06-24T06:52:18;101615.47;;;18.53;44.20
14295;BME280;7231;59.370;18.016;2023-06-24T06:54:47;101605.00;;;18.69;44.18
14295;BME280;7231;59.370;18.016;2023-06-24T06:57:15;101585.56;;;18.75;44.26
14295;BME280;7231;59.370;18.016;2023-06-24T06:59:43;101610.53;;;19.01;44.10
14295;BME280;7231;59.370;18.016;2023-06-24T07:02:11;101617.69;;;19.11;43.61
14295;BME280;7231;59.370;18.016;2023-06-24T07:04:39;101622.19;;;19.28;43.39
14295;BME280;7231;59.370;18.016;2023-06-24T07:07:07;101580.44;;;19.10;43.20
14295;BME280;7231;59.370;18.016;2023-06-24T07:09:35;101612.44;;;19.30;42.96
14295;BME280;7231;59.370;18.016;2023-06-24T07:12:06;101602.75;;;19.38;43.16
14295;BME280;7231;59.370;18.016;2023-06-24T07:14:34;101593.97;;;19.54;42.94
14295;BME280;7231;59.370;18.016;2023-06-24T07:17:02;101613.53;;;19.77;43.06
14295;BME280;7231;59.370;18.016;2023-06-24T07:19:30;101606.50;;;19.95;42.97
14295;BME280;7231;59.370;18.016;2023-06-24T07:21:58;101607.41;;;20.12;42.60
14295;BME280;7231;59.370;18.016;2023-06-24T07:24:26;101616.28;;;20.28;42.21
14295;BME280;7231;59.370;18.016;2023-06-24T07:26:54;101602.13;;;20.42;41.84
14295;BME280;7231;59.370;18.016;2023-06-24T07:29:23;101598.53;;;20.69;41.81
14295;BME280;7231;59.370;18.016;2023-06-24T07:31:51;101594.94;;;20.84;41.43
14295;BME280;7231;59.370;18.016;2023-06-24T07:34:19;101609.06;;;21.14;41.59
14295;BME280;7231;59.370;18.016;2023-06-24T07:36:47;101600.09;;;21.42;40.89
14295;BME280;7231;59.370;18.016;2023-06-24T07:39:17;101555.56;;;21.56;41.23
14295;BME280;7231;59.370;18.016;2023-06-24T07:41:45;101564.16;;;21.99;40.72
14295;BME280;7231;59.370;18.016;2023-06-24T07:44:13;101592.09;;;22.69;41.60
14295;BME280;7231;59.370;18.016;2023-06-24T07:46:43;101593.25;;;23.29;39.54
14295;BME280;7231;59.370;18.016;2023-06-24T07:49:11;101410.91;;;22.94;39.86
14295;BME280;7231;59.370;18.016;2023-06-24T07:51:39;101596.97;;;24.90;38.12
14295;BME280;7231;59.370;18.016;2023-06-24T07:54:07;101590.13;;;25.63;36.85
14295;BME280;7231;59.370;18.016;2023-06-24T07:56:35;101589.94;;;26.09;36.20
14295;BME280;7231;59.370;18.016;2023-06-24T07:59:03;101585.44;;;26.47;35.32
14295;BME280;7231;59.370;18.016;2023-06-24T08:01:31;101594.88;;;26.28;35.22
14295;BME280;7231;59.370;18.016;2023-06-24T08:04:00;101525.44;;;26.45;34.70
14295;BME280;7231;59.370;18.016;2023-06-24T08:06:28;101586.41;;;27.42;34.15
14295;BME280;7231;59.370;18.016;2023-06-24T08:08:56;101589.88;;;27.45;33.25
14295;BME280;7231;59.370;18.016;2023-06-24T08:11:25;101584.06;;;27.61;32.86
14295;BME280;7231;59.370;18.016;2023-06-24T08:13:53;101587.00;;;27.81;32.70
14295;BME280;7231;59.370;18.016;2023-06-24T08:16:21;101583.63;;;28.30;32.25
14295;BME280;7231;59.370;18.016;2023-06-24T08:18:49;101575.72;;;28.51;31.35
14295;BME280;7231;59.370;18.016;2023-06-24T08:21:18;101569.28;;;28.80;31.21
14295;BME280;7231;59.370;18.016;2023-06-24T08:23:46;101539.75;;;29.00;31.59
14295;BME280;7231;59.370;18.016;2023-06-24T08:26:14;101580.53;;;29.40;30.36
14295;BME280;7231;59.370;18.016;2023-06-24T08:28:45;101595.31;;;29.07;29.47
14295;BME280;7231;59.370;18.016;2023-06-24T08:31:13;101550.09;;;28.11;30.06
14295;BME280;7231;59.370;18.016;2023-06-24T08:33:44;101598.63;;;28.39;30.47
14295;BME280;7231;59.370;18.016;2023-06-24T08:36:13;101574.00;;;28.73;30.22
14295;BME280;7231;59.370;18.016;2023-06-24T08:38:43;101587.09;;;29.33;29.51
14295;BME280;7231;59.370;18.016;2023-06-24T08:41:11;101586.47;;;29.73;29.85
14295;BME280;7231;59.370;18.016;2023-06-24T08:43:39;101583.75;;;29.27;29.78
14295;BME280;7231;59.370;18.016;2023-06-24T08:46:07;101521.31;;;29.11;29.68
14295;BME280;7231;59.370;18.016;2023-06-24T08:48:37;101586.63;;;29.22;29.50
14295;BME280;7231;59.370;18.016;2023-06-24T08:51:08;101588.75;;;29.37;29.48
14295;BME280;7231;59.370;18.016;2023-06-24T08:53:37;101593.63;;;29.75;29.24
14295;BME280;7231;59.370;18.016;2023-06-24T08:56:07;101593.00;;;30.13;29.23
14295;BME280;7231;59.370;18.016;2023-06-24T08:58:36;101584.84;;;30.35;28.78
14295;BME280;7231;59.370;18.016;2023-06-24T09:01:06;101597.69;;;30.30;28.19
14295;BME280;7231;59.370;18.016;2023-06-24T09:03:34;101602.22;;;29.62;28.54
14295;BME280;7231;59.370;18.016;2023-06-24T09:06:03;101599.22;;;29.70;28.88
14295;BME280;7231;59.370;18.016;2023-06-24T09:08:31;101595.53;;;29.94;28.11
14295;BME280;7231;59.370;18.016;2023-06-24T09:11:02;101602.56;;;30.22;28.21
14295;BME280;7231;59.370;18.016;2023-06-24T09:13:35;101598.75;;;30.48;27.47
14295;BME280;7231;59.370;18.016;2023-06-24T09:16:13;101596.78;;;29.86;27.59
14295;BME280;7231;59.370;18.016;2023-06-24T09:18:41;101599.22;;;29.70;28.02
14295;BME280;7231;59.370;18.016;2023-06-24T09:21:21;101583.88;;;29.24;28.00
14295;BME280;7231;59.370;18.016;2023-06-24T09:23:51;101578.97;;;29.10;28.41
14295;BME280;7231;59.370;18.016;2023-06-24T09:26:19;101588.06;;;29.56;28.55
14295;BME280;7231;59.370;18.016;2023-06-24T09:28:49;101587.81;;;29.38;28.14
14295;BME280;7231;59.370;18.016;2023-06-24T09:31:18;101587.25;;;29.54;28.53
14295;BME280;7231;59.370;18.016;2023-06-24T09:33:46;101590.34;;;28.95;28.32
14295;BME280;7231;59.370;18.016;2023-06-24T09:36:15;101587.69;;;28.16;29.32
14295;BME280;7231;59.370;18.016;2023-06-24T09:38:43;101588.41;;;28.22;29.50
14295;BME280;7231;59.370;18.016;2023-06-24T09:41:13;101563.25;;;27.94;29.54
14295;BME280;7231;59.370;18.016;2023-06-24T09:43:43;101589.66;;;28.10;30.07
14295;BME280;7231;59.370;18.016;2023-06-24T09:46:14;101583.50;;;28.60;29.26
14295;BME280;7231;59.370;18.016;2023-06-24T09:48:42;101585.75;;;29.22;29.28
14295;BME280;7231;59.370;18.016;2023-06-24T09:51:11;101585.22;;;29.35;28.01
14295;BME280;7231;59.370;18.016;2023-06-24T09:53:40;101580.31;;;28.98;28.25
14295;BME280;7231;59.370;18.016;2023-06-24T09:56:11;101582.88;;;28.76;28.77
14295;BME280;7231;59.370;18.016;2023-06-24T09:58:41;101578.28;;;29.28;28.56
14295;BME280;7231;59.370;18.016;2023-06-24T10:01:12;101570.66;;;29.39;28.53
14295;BME280;7231;59.370;18.016;2023-06-24T10:03:43;101577.53;;;29.71;28.73
14295;BME280;7231;59.370;18.016;2023-06-24T10:06:11;101573.78;;;30.41;27.93
14295;BME280;7231;59.370;18.016;2023-06-24T10:08:39;101570.19;;;30.41;27.79
14295;BME280;7231;59.370;18.016;2023-06-24T10:11:08;101564.00;;;30.79;27.35
14295;BME280;7231;59.370;18.016;2023-06-24T10:13:36;101558.16;;;31.27;26.75
14295;BME280;7231;59.370;18.016;2023-06-24T10:16:04;101558.53;;;30.81;26.84
14295;BME280;7231;59.370;18.016;2023-06-24T10:18:37;101562.47;;;30.31;26.42
14295;BME280;7231;59.370;18.016;2023-06-24T10:21:06;101562.97;;;29.29;27.87
14295;BME280;7231;59.370;18.016;2023-06-24T10:23:39;101492.22;;;28.96;27.39
14295;BME280;7231;59.370;18.016;2023-06-24T10:26:09;101557.09;;;29.86;27.87
14295;BME280;7231;59.370;18.016;2023-06-24T10:29:09;101551.34;;;30.59;26.81
14295;BME280;7231;59.370;18.016;2023-06-24T10:31:53;101544.63;;;31.27;26.36
14295;BME280;7231;59.370;18.016;2023-06-24T10:34:32;101550.78;;;31.31;26.17
14295;BME280;7231;59.370;18.016;2023-06-24T10:37:01;101557.13;;;31.11;25.94
14295;BME280;7231;59.370;18.016;2023-06-24T10:39:40;101549.63;;;30.57;26.77
14295;BME280;7231;59.370;18.016;2023-06-24T10:42:40;101549.88;;;29.87;26.78
14295;BME280;7231;59.370;18.016;2023-06-24T10:45:17;101530.25;;;29.36;27.77
14295;BME280;7231;59.370;18.016;2023-06-24T10:47:47;101546.84;;;29.51;28.35
14295;BME280;7231;59.370;18.016;2023-06-24T10:50:18;101514.75;;;29.18;28.42
14295;BME280;7231;59.370;18.016;2023-06-24T10:52:47;101544.59;;;29.62;28.12
14295;BME280;7231;59.370;18.016;2023-06-24T10:55:17;101545.44;;;30.08;28.10
14295;BME280;7231;59.370;18.016;2023-06-24T10:57:45;101537.25;;;30.51;28.00
14295;BME280;7231;59.370;18.016;2023-06-24T11:00:15;101529.78;;;30.97;27.59
14295;BME280;7231;59.370;18.016;2023-06-24T11:02:44;101530.47;;;31.02;27.36
14295;BME280;7231;59.370;18.016;2023-06-24T11:05:12;101529.44;;;31.05;27.38
14295;BME280;7231;59.370;18.016;2023-06-24T11:07:41;101511.88;;;30.74;27.65
14295;BME280;7231;59.370;18.016;2023-06-24T11:10:11;101537.41;;;30.68;28.11
14295;BME280;7231;59.370;18.016;2023-06-24T11:12:40;101529.25;;;30.28;28.43
14295;BME280;7231;59.370;18.016;2023-06-24T11:15:10;101535.84;;;29.99;29.14
14295;BME280;7231;59.370;18.016;2023-06-24T11:17:39;101526.94;;;30.19;28.93
14295;BME280;7231;59.370;18.016;2023-06-24T11:20:09;101530.06;;;30.30;29.35
14295;BME280;7231;59.370;18.016;2023-06-24T11:22:37;101527.47;;;30.69;29.13
14295;BME280;7231;59.370;18.016;2023-06-24T11:25:14;101528.63;;;29.99;29.23
14295;BME280;7231;59.370;18.016;2023-06-24T11:27:42;101516.56;;;29.64;29.95
14295;BME280;7231;59.370;18.016;2023-06-24T11:30:11;101536.94;;;30.17;29.76
14295;BME280;7231;59.370;18.016;2023-06-24T11:32:40;101526.72;;;30.65;29.99
14295;BME280;7231;59.370;18.016;2023-06-24T11:35:10;101517.91;;;31.20;29.38
14295;BME280;7231;59.370;18.016;2023-06-24T11:37:41;101521.91;;;31.30;29.43
14295;BME280;7231;59.370;18.016;2023-06-24T11:40:11;101525.41;;;31.13;28.66
14295;BME280;7231;59.370;18.016;2023-06-24T11:42:44;101519.34;;;30.69;29.18
14295;BME280;7231;59.370;18.016;2023-06-24T11:45:14;101523.72;;;30.72;29.21
14295;BME280;7231;59.370;18.016;2023-06-24T11:47:47;101528.06;;;29.91;30.37
14295;BME280;7231;59.370;18.016;2023-06-24T11:50:15;101525.31;;;30.35;29.92
14295;BME280;7231;59.370;18.016;2023-06-24T11:52:46;101521.38;;;30.64;29.28
14295;BME280;7231;59.370;18.016;2023-06-24T11:55:21;101509.06;;;31.16;29.34
14295;BME280;7231;59.370;18.016;2023-06-24T11:57:51;101515.34;;;31.17;28.94
14295;BME280;7231;59.370;18.016;2023-06-24T12:00:20;101503.00;;;31.47;28.97
14295;BME280;7231;59.370;18.016;2023-06-24T12:02:53;101495.69;;;31.12;29.05
14295;BME280;7231;59.370;18.016;2023-06-24T12:05:26;101496.31;;;30.79;29.60
14295;BME280;7231;59.370;18.016;2023-06-24T12:07:57;101511.38;;;30.24;30.43
14295;BME280;7231;59.370;18.016;2023-06-24T12:10:27;101498.88;;;30.42;30.07
14295;BME280;7231;59.370;18.016;2023-06-24T12:12:56;101500.97;;;30.76;30.78
14295;BME280;7231;59.370;18.016;2023-06-24T12:15:25;101509.22;;;31.49;29.72
14295;BME280;7231;59.370;18.016;2023-06-24T12:17:53;101496.03;;;31.79;29.16
14295;BME280;7231;59.370;18.016;2023-06-24T12:20:21;101486.34;;;32.10;28.63
14295;BME280;7231;59.370;18.016;2023-06-24T12:22:51;101422.69;;;31.09;28.56
14295;BME280;7231;59.370;18.016;2023-06-24T12:25:19;101503.13;;;30.88;29.37
14295;BME280;7231;59.370;18.016;2023-06-24T12:27:49;101493.56;;;30.60;30.04
14295;BME280;7231;59.370;18.016;2023-06-24T12:30:17;101486.81;;;31.46;29.25
14295;BME280;7231;59.370;18.016;2023-06-24T12:32:45;101491.19;;;31.67;28.26
14295;BME280;7231;59.370;18.016;2023-06-24T12:35:13;101489.31;;;31.13;28.41
14295;BME280;7231;59.370;18.016;2023-06-24T12:37:41;101505.84;;;30.27;28.82
14295;BME280;7231;59.370;18.016;2023-06-24T12:40:12;101500.06;;;30.14;28.94
14295;BME280;7231;59.370;18.016;2023-06-24T12:42:40;101492.59;;;30.41;28.89
14295;BME280;7231;59.370;18.016;2023-06-24T12:45:10;101485.34;;;29.99;29.10
14295;BME280;7231;59.370;18.016;2023-06-24T12:47:38;101475.38;;;29.80;29.24
14295;BME280;7231;59.370;18.016;2023-06-24T12:50:07;101504.72;;;29.67;29.30
14295;BME280;7231;59.370;18.016;2023-06-24T12:52:36;101484.38;;;29.35;29.19
14295;BME280;7231;59.370;18.016;2023-06-24T12:55:06;101484.97;;;29.20;29.60
14295;BME280;7231;59.370;18.016;2023-06-24T12:57:34;101491.72;;;29.31;29.59
14295;BME280;7231;59.370;18.016;2023-06-24T13:00:04;101472.28;;;29.89;29.76
14295;BME280;7231;59.370;18.016;2023-06-24T13:02:36;101485.59;;;30.56;28.51
14295;BME280;7231;59.370;18.016;2023-06-24T13:05:05;101465.97;;;31.10;28.90